createdAt,value
2017-12-17T00:02:13.291Z,3.17
2017-12-17T00:04:40.740Z,3.03
2017-12-17T00:07:08.197Z,2.80
2017-12-17T00:09:36.429Z,3.50
2017-12-17T00:12:03.907Z,3.33
2017-12-17T00:14:31.385Z,2.78
2017-12-17T00:16:58.856Z,3.12
2017-12-17T00:19:26.304Z,3.03
2017-12-17T00:21:53.814Z,3.22
2017-12-17T00:24:21.296Z,2.67
2017-12-17T00:26:48.776Z,2.92
2017-12-17T00:29:16.252Z,2.67
2017-12-17T00:31:43.723Z,2.35
2017-12-17T00:34:11.165Z,2.70
2017-12-17T00:36:38.650Z,2.85
2017-12-17T00:39:06.091Z,2.85
2017-12-17T00:41:34.322Z,2.50
2017-12-17T00:44:01.809Z,3.25
2017-12-17T00:46:29.250Z,2.60
2017-12-17T00:48:56.752Z,3.37
2017-12-17T00:51:24.192Z,3.40
2017-12-17T00:53:51.647Z,3.00
2017-12-17T00:56:19.083Z,3.50
2017-12-17T00:58:46.537Z,3.22
2017-12-17T01:01:14.042Z,3.08
2017-12-17T01:03:41.487Z,3.30
2017-12-17T01:06:08.973Z,3.80
2017-12-17T01:08:36.416Z,4.10
2017-12-17T01:11:03.860Z,3.58
2017-12-17T01:13:31.316Z,3.35
2017-12-17T01:15:58.751Z,3.33
2017-12-17T01:18:26.200Z,3.10
2017-12-17T01:20:54.429Z,3.50
2017-12-17T01:23:21.858Z,3.60
2017-12-17T01:25:50.088Z,3.85
2017-12-17T01:28:17.532Z,4.68
2017-12-17T01:30:46.263Z,4.62
2017-12-17T01:33:13.703Z,3.60
2017-12-17T01:35:41.936Z,3.37
2017-12-17T01:38:09.400Z,3.00
2017-12-17T01:40:36.889Z,3.10
2017-12-17T01:43:04.351Z,3.47
2017-12-17T01:45:31.792Z,3.15
2017-12-17T01:47:59.271Z,3.72
2017-12-17T01:50:26.700Z,3.03
2017-12-17T01:52:54.273Z,4.20
2017-12-17T01:55:21.750Z,3.90
2017-12-17T01:57:49.243Z,3.15
2017-12-17T02:00:16.696Z,3.12
2017-12-17T02:02:44.467Z,3.00
2017-12-17T02:05:11.909Z,3.70
2017-12-17T02:07:40.127Z,2.75
2017-12-17T02:10:07.607Z,2.60
2017-12-17T02:12:35.033Z,2.95
2017-12-17T02:15:02.510Z,3.42
2017-12-17T02:17:30.006Z,3.05
2017-12-17T02:19:57.412Z,2.80
2017-12-17T02:22:24.874Z,2.95
2017-12-17T02:24:52.347Z,3.05
2017-12-17T02:27:19.782Z,3.33
2017-12-17T02:29:47.320Z,3.60
2017-12-17T02:32:14.847Z,3.03
2017-12-17T02:34:42.348Z,3.00
2017-12-17T02:37:09.808Z,3.10
2017-12-17T02:39:38.033Z,3.42
2017-12-17T02:42:05.502Z,2.80
2017-12-17T02:44:32.975Z,3.35
2017-12-17T02:47:00.404Z,3.30
2017-12-17T02:49:27.867Z,3.50
2017-12-17T02:51:55.298Z,2.87
2017-12-17T02:54:22.769Z,3.60
2017-12-17T02:56:50.222Z,3.05
2017-12-17T02:59:18.448Z,3.78
2017-12-17T03:01:45.948Z,3.33
2017-12-17T03:04:13.432Z,3.30
2017-12-17T03:06:40.859Z,3.30
2017-12-17T03:09:08.344Z,3.33
2017-12-17T03:11:35.800Z,3.12
2017-12-17T03:14:03.302Z,3.28
2017-12-17T03:16:30.792Z,3.08
2017-12-17T03:18:58.260Z,3.58
2017-12-17T03:21:25.695Z,3.28
2017-12-17T03:23:53.945Z,3.10
2017-12-17T03:26:21.383Z,3.33
2017-12-17T03:28:48.832Z,3.35
2017-12-17T03:31:17.056Z,3.37
2017-12-17T03:33:44.519Z,3.95
2017-12-17T03:36:12.007Z,4.12
2017-12-17T03:38:39.516Z,3.45
2017-12-17T03:41:06.947Z,3.22
2017-12-17T03:43:34.424Z,3.83
2017-12-17T03:46:01.879Z,3.40
2017-12-17T03:48:29.369Z,3.40
2017-12-17T03:50:56.878Z,3.85
2017-12-17T03:53:24.319Z,3.97
2017-12-17T03:55:51.785Z,3.53
2017-12-17T03:58:19.223Z,3.78
2017-12-17T04:00:46.928Z,4.25
2017-12-17T04:03:15.135Z,3.75
2017-12-17T04:05:42.596Z,3.83
2017-12-17T04:08:10.121Z,3.67
2017-12-17T04:10:37.609Z,3.85
2017-12-17T04:13:05.067Z,4.57
2017-12-17T04:15:32.509Z,3.60
2017-12-17T04:17:59.965Z,4.20
2017-12-17T04:20:28.198Z,3.83
2017-12-17T04:22:55.659Z,3.70
2017-12-17T04:25:23.154Z,3.28
2017-12-17T04:27:50.592Z,4.10
2017-12-17T04:30:18.803Z,4.87
2017-12-17T04:32:46.303Z,3.80
2017-12-17T04:35:13.750Z,4.07
2017-12-17T04:37:41.165Z,4.12
2017-12-17T04:40:08.623Z,4.43
2017-12-17T04:42:36.066Z,4.03
2017-12-17T04:45:04.029Z,3.80
2017-12-17T04:47:32.311Z,4.28
2017-12-17T04:49:59.758Z,3.62
2017-12-17T04:52:27.936Z,4.12
2017-12-17T04:54:55.389Z,4.20
2017-12-17T04:57:22.857Z,4.30
2017-12-17T04:59:51.059Z,4.00
2017-12-17T05:02:18.553Z,3.90
2017-12-17T05:04:46.003Z,4.32
2017-12-17T05:07:13.464Z,3.95
2017-12-17T05:09:41.691Z,3.78
2017-12-17T05:12:09.130Z,4.20
2017-12-17T05:14:37.381Z,4.15
2017-12-17T05:17:04.836Z,4.40
2017-12-17T05:19:32.325Z,3.75
2017-12-17T05:21:59.822Z,4.50
2017-12-17T05:24:27.356Z,4.37
2017-12-17T05:26:54.799Z,4.00
2017-12-17T05:29:23.028Z,4.37
2017-12-17T05:31:50.480Z,4.00
2017-12-17T05:34:17.934Z,3.72
2017-12-17T05:36:45.422Z,3.70
2017-12-17T05:39:13.877Z,4.10
2017-12-17T05:41:41.334Z,4.00
2017-12-17T05:44:08.787Z,3.97
2017-12-17T05:46:36.255Z,4.20
2017-12-17T05:49:03.768Z,3.87
2017-12-17T05:51:31.430Z,3.97
2017-12-17T05:53:58.953Z,4.10
2017-12-17T05:56:26.429Z,4.40
2017-12-17T05:58:54.093Z,4.32
2017-12-17T06:01:21.531Z,4.45
2017-12-17T06:03:48.988Z,4.37
2017-12-17T06:06:16.443Z,4.70
2017-12-17T06:08:43.980Z,4.30
2017-12-17T06:11:11.440Z,4.30
2017-12-17T06:13:38.919Z,3.85
2017-12-17T06:16:06.368Z,4.03
2017-12-17T06:18:33.936Z,4.75
2017-12-17T06:21:02.192Z,4.60
2017-12-17T06:23:29.635Z,4.10
2017-12-17T06:25:57.088Z,4.47
2017-12-17T06:28:24.550Z,4.68
2017-12-17T06:30:52.744Z,5.28
2017-12-17T06:33:20.216Z,4.25
2017-12-17T06:35:48.460Z,4.25
2017-12-17T06:38:16.014Z,4.50
2017-12-17T06:40:43.451Z,4.25
2017-12-17T06:43:11.685Z,5.20
2017-12-17T06:45:39.127Z,4.78
2017-12-17T06:48:06.599Z,4.25
2017-12-17T06:50:34.801Z,3.62
2017-12-17T06:53:02.308Z,4.62
2017-12-17T06:55:29.804Z,4.32
2017-12-17T06:57:57.244Z,4.22
2017-12-17T07:00:24.701Z,4.80
2017-12-17T07:02:52.151Z,4.07
2017-12-17T07:05:21.099Z,3.42
2017-12-17T07:07:48.535Z,4.07
2017-12-17T07:10:16.003Z,4.32
2017-12-17T07:12:43.496Z,5.65
2017-12-17T07:15:10.992Z,3.75
2017-12-17T07:17:38.476Z,3.95
2017-12-17T07:20:05.932Z,3.35
2017-12-17T07:22:33.391Z,3.72
2017-12-17T07:25:01.607Z,4.43
2017-12-17T07:27:29.112Z,3.42
2017-12-17T07:29:56.578Z,4.20
2017-12-17T07:32:24.014Z,4.65
2017-12-17T07:34:52.244Z,4.07
2017-12-17T07:37:19.697Z,4.12
2017-12-17T07:39:47.137Z,4.90
2017-12-17T07:42:18.843Z,5.07
2017-12-17T07:44:46.276Z,3.12
2017-12-17T07:47:13.743Z,3.45
2017-12-17T07:49:41.238Z,4.25
2017-12-17T07:52:08.727Z,4.22
2017-12-17T07:54:37.002Z,4.60
2017-12-17T07:57:04.440Z,3.92
2017-12-17T07:59:31.900Z,4.55
2017-12-17T08:01:59.352Z,5.00
2017-12-17T08:04:27.582Z,5.80
2017-12-17T08:06:55.029Z,5.03
2017-12-17T08:09:22.530Z,4.40
2017-12-17T08:11:49.974Z,4.45
2017-12-17T08:14:17.411Z,5.00
2017-12-17T08:16:44.921Z,5.00
2017-12-17T08:19:12.375Z,4.43
2017-12-17T08:21:41.313Z,5.62
2017-12-17T08:24:08.820Z,5.15
2017-12-17T08:26:36.347Z,5.07
2017-12-17T08:29:03.868Z,4.90
2017-12-17T08:31:31.329Z,4.82
2017-12-17T08:33:58.923Z,5.25
2017-12-17T08:36:26.469Z,4.15
2017-12-17T08:38:53.942Z,4.80
2017-12-17T08:41:21.447Z,5.28
2017-12-17T08:43:48.929Z,4.65
2017-12-17T08:46:16.372Z,4.30
2017-12-17T08:48:43.836Z,3.87
2017-12-17T08:51:11.318Z,4.45
2017-12-17T08:53:38.783Z,4.25
2017-12-17T08:56:06.300Z,4.18
2017-12-17T08:58:33.933Z,4.45
2017-12-17T09:01:01.357Z,5.60
2017-12-17T09:03:28.844Z,3.60
2017-12-17T09:05:56.305Z,3.95
2017-12-17T09:08:23.782Z,4.47
2017-12-17T09:10:51.219Z,4.55
2017-12-17T09:13:18.678Z,3.72
2017-12-17T09:25:26.159Z,4.95
2017-12-17T09:27:54.453Z,4.75
2017-12-17T09:30:21.905Z,5.00
2017-12-17T09:32:49.335Z,4.60
2017-12-17T09:35:16.796Z,6.10
2017-12-17T09:37:44.396Z,5.20
2017-12-17T09:40:11.851Z,4.80
2017-12-17T09:42:39.320Z,5.40
2017-12-17T09:45:06.805Z,4.60
2017-12-17T09:47:34.393Z,5.32
2017-12-17T09:50:01.869Z,4.75
2017-12-17T09:52:29.324Z,5.65
2017-12-17T09:54:56.794Z,4.68
2017-12-17T09:57:24.273Z,10.07
2017-12-17T09:59:51.817Z,4.93
2017-12-17T10:02:20.112Z,5.87
2017-12-17T10:04:47.540Z,5.87
2017-12-17T10:07:14.999Z,5.97
2017-12-17T10:09:42.435Z,5.80
2017-12-17T10:12:10.868Z,5.75
2017-12-17T10:14:38.324Z,5.15
2017-12-17T10:17:05.791Z,5.93
2017-12-17T10:19:33.288Z,5.97
2017-12-17T10:22:00.764Z,5.60
2017-12-17T10:24:28.360Z,5.90
2017-12-17T10:26:55.825Z,5.93
2017-12-17T10:29:23.373Z,6.18
2017-12-17T10:31:50.768Z,5.95
2017-12-17T10:34:18.947Z,6.78
2017-12-17T10:36:47.160Z,6.37
2017-12-17T10:39:14.703Z,5.85
2017-12-17T10:41:42.273Z,5.50
2017-12-17T10:44:09.756Z,5.57
2017-12-17T10:46:37.223Z,6.12
2017-12-17T10:49:04.814Z,5.90
2017-12-17T10:51:32.291Z,5.35
2017-12-17T10:53:59.780Z,5.00
2017-12-17T10:56:27.214Z,4.95
2017-12-17T10:58:55.659Z,5.20
2017-12-17T11:01:23.158Z,5.47
2017-12-17T11:03:50.648Z,6.00
2017-12-17T11:06:18.860Z,4.70
2017-12-17T11:08:46.317Z,5.50
2017-12-17T11:11:14.539Z,5.10
2017-12-17T11:13:41.993Z,5.35
2017-12-17T11:16:10.240Z,5.10
2017-12-17T11:18:37.700Z,5.15
2017-12-17T11:21:05.180Z,5.60
2017-12-17T11:23:32.634Z,6.45
2017-12-17T11:26:00.084Z,5.10
2017-12-17T11:28:28.311Z,7.57
2017-12-17T11:30:55.761Z,6.30
2017-12-17T11:33:23.943Z,7.25
2017-12-17T11:35:51.418Z,7.53
2017-12-17T11:38:19.625Z,7.35
2017-12-17T11:40:47.083Z,7.10
2017-12-17T11:43:15.304Z,7.05
2017-12-17T11:45:42.791Z,6.53
2017-12-17T11:48:10.219Z,7.03
2017-12-17T11:50:38.440Z,6.65
2017-12-17T11:53:05.886Z,6.10
2017-12-17T11:55:34.090Z,6.65
2017-12-17T11:58:02.344Z,6.05
2017-12-17T12:00:29.846Z,6.18
2017-12-17T12:02:57.337Z,6.05
2017-12-17T12:05:26.046Z,6.40
2017-12-17T12:07:53.523Z,7.45
2017-12-17T12:10:21.718Z,6.10
2017-12-17T12:12:49.747Z,6.97
2017-12-17T12:15:17.175Z,7.22
2017-12-17T12:17:44.629Z,6.78
2017-12-17T12:20:12.867Z,6.85
2017-12-17T12:22:40.331Z,6.72
2017-12-17T12:25:07.790Z,6.80
2017-12-17T12:27:35.352Z,7.57
2017-12-17T12:30:02.787Z,7.47
2017-12-17T12:32:30.260Z,7.57
2017-12-17T12:34:57.743Z,8.63
2017-12-17T12:37:25.231Z,7.72
2017-12-17T12:39:52.683Z,7.45
2017-12-17T12:42:20.148Z,7.35
2017-12-17T12:44:47.612Z,7.57
2017-12-17T12:47:15.094Z,7.75
2017-12-17T12:49:42.556Z,6.70
2017-12-17T12:52:10.003Z,6.45
2017-12-17T12:54:42.247Z,6.65
2017-12-17T12:57:09.704Z,5.72
2017-12-17T12:59:37.760Z,4.90
2017-12-17T13:02:05.981Z,5.60
2017-12-17T13:04:33.443Z,6.40
2017-12-17T13:07:00.962Z,6.72
2017-12-17T13:09:28.435Z,6.57
2017-12-17T13:11:55.954Z,6.97
2017-12-17T13:14:23.407Z,5.90
2017-12-17T13:16:51.644Z,6.65
2017-12-17T13:19:19.081Z,6.65
2017-12-17T13:21:47.308Z,5.85
2017-12-17T13:24:14.764Z,5.97
2017-12-17T13:26:42.232Z,5.28
2017-12-17T13:29:10.449Z,6.28
2017-12-17T13:31:37.976Z,6.37
2017-12-17T13:34:05.467Z,6.72
2017-12-17T13:36:33.672Z,5.95
2017-12-17T13:39:01.131Z,6.90
2017-12-17T13:41:29.366Z,5.78
2017-12-17T13:43:56.798Z,7.70
2017-12-17T13:46:25.033Z,6.57
2017-12-17T13:48:52.509Z,6.97
2017-12-17T13:51:20.016Z,6.70
2017-12-17T13:53:47.494Z,6.82
2017-12-17T13:56:14.929Z,6.37
2017-12-17T13:58:42.448Z,6.12
2017-12-17T14:01:09.896Z,7.00
2017-12-17T14:03:37.362Z,6.35
2017-12-17T14:06:04.852Z,6.40
2017-12-17T14:08:32.287Z,5.35
2017-12-17T14:10:59.806Z,5.70
2017-12-17T14:13:27.247Z,5.95
2017-12-17T14:15:54.740Z,6.70
2017-12-17T14:18:22.188Z,7.60
2017-12-17T14:20:49.662Z,6.28
2017-12-17T14:23:17.117Z,6.12
2017-12-17T14:25:44.567Z,7.22
2017-12-17T14:28:12.016Z,6.07
2017-12-17T14:30:39.524Z,8.02
2017-12-17T14:33:06.975Z,8.05
2017-12-17T14:35:34.416Z,6.40
2017-12-17T14:38:01.873Z,3.95
2017-12-17T14:40:30.087Z,4.25
2017-12-17T14:42:57.524Z,3.65
2017-12-17T14:45:25.837Z,4.80
2017-12-17T14:47:54.140Z,3.97
2017-12-17T14:50:21.604Z,3.83
2017-12-17T14:52:49.844Z,3.97
2017-12-17T14:55:17.299Z,3.55
2017-12-17T14:57:44.744Z,3.40
2017-12-17T15:00:13.895Z,3.10
2017-12-17T15:02:41.400Z,3.50
2017-12-17T15:05:08.834Z,2.95
2017-12-17T15:07:36.320Z,3.90
2017-12-17T15:10:03.827Z,3.37
2017-12-17T15:12:31.285Z,4.37
2017-12-17T15:14:58.731Z,4.30
2017-12-17T15:17:26.176Z,4.30
2017-12-17T15:19:54.468Z,4.53
2017-12-17T15:22:22.712Z,5.50
2017-12-17T15:24:50.204Z,5.20
2017-12-17T15:27:17.683Z,4.90
2017-12-17T15:29:45.229Z,6.20
2017-12-17T15:32:12.670Z,5.60
2017-12-17T15:34:40.873Z,6.25
2017-12-17T15:37:08.370Z,6.30
2017-12-17T15:39:35.809Z,6.05
2017-12-17T15:42:04.048Z,6.43
2017-12-17T15:44:31.531Z,6.53
2017-12-17T15:46:58.994Z,5.78
2017-12-17T15:49:26.480Z,6.65
2017-12-17T15:51:54.356Z,5.80
2017-12-17T15:54:21.824Z,6.30
2017-12-17T15:56:49.259Z,6.60
2017-12-17T15:59:17.507Z,6.28
2017-12-17T16:01:44.954Z,6.95
2017-12-17T16:04:12.418Z,6.12
2017-12-17T16:06:39.874Z,6.50
2017-12-17T16:09:08.098Z,5.35
2017-12-17T16:11:36.055Z,5.50
2017-12-17T16:14:04.278Z,6.20
2017-12-17T16:16:31.735Z,5.25
2017-12-17T16:18:59.219Z,6.47
2017-12-17T16:21:26.695Z,6.37
2017-12-17T16:23:54.176Z,6.37
2017-12-17T16:26:21.623Z,6.22
2017-12-17T16:28:49.839Z,6.45
2017-12-17T16:31:17.307Z,7.12
2017-12-17T16:33:44.749Z,6.87
2017-12-17T16:36:12.203Z,7.60
2017-12-17T16:38:39.659Z,7.12
2017-12-17T16:41:07.119Z,7.43
2017-12-17T16:43:34.548Z,7.87
2017-12-17T16:46:02.008Z,7.82
2017-12-17T16:48:29.515Z,6.62
2017-12-17T16:50:58.471Z,7.50
2017-12-17T16:53:25.957Z,7.22
2017-12-17T16:55:53.399Z,6.03
2017-12-17T16:58:20.871Z,7.03
2017-12-17T17:00:48.308Z,6.05
2017-12-17T17:03:16.398Z,6.05
2017-12-17T17:05:43.840Z,6.37
2017-12-17T17:08:11.355Z,6.72
2017-12-17T17:10:38.787Z,6.53
2017-12-17T17:13:06.248Z,8.13
2017-12-17T17:15:37.820Z,6.37
2017-12-17T17:18:05.280Z,6.05
2017-12-17T17:20:32.735Z,4.95
2017-12-17T17:23:00.962Z,4.62
2017-12-17T17:25:28.418Z,5.03
2017-12-17T17:27:55.973Z,4.87
2017-12-17T17:30:24.233Z,4.60
2017-12-17T17:32:51.682Z,6.65
2017-12-17T17:35:19.159Z,5.10
2017-12-17T17:37:46.669Z,4.43
2017-12-17T17:40:14.098Z,5.22
2017-12-17T17:42:41.607Z,6.10
2017-12-17T17:45:09.071Z,5.70
2017-12-17T17:47:36.529Z,5.45
2017-12-17T17:50:03.987Z,5.55
2017-12-17T17:52:31.426Z,4.70
2017-12-17T17:54:58.946Z,5.97
2017-12-17T17:57:26.424Z,5.50
2017-12-17T17:59:54.768Z,5.00
2017-12-17T18:02:22.217Z,5.10
2017-12-17T18:04:49.675Z,5.82
2017-12-17T18:07:17.150Z,5.22
2017-12-17T18:09:44.612Z,5.95
2017-12-17T18:12:12.066Z,5.85
2017-12-17T18:14:40.284Z,5.10
2017-12-17T18:17:07.767Z,4.60
2017-12-17T18:19:35.213Z,5.60
2017-12-17T18:22:02.690Z,6.20
2017-12-17T18:24:30.157Z,5.60
2017-12-17T18:26:58.367Z,6.50
2017-12-17T18:29:25.821Z,6.93
2017-12-17T18:31:54.044Z,6.15
2017-12-17T18:34:21.501Z,6.68
2017-12-17T18:36:48.948Z,6.45
2017-12-17T18:39:16.483Z,7.12
2017-12-17T18:41:43.915Z,6.62
2017-12-17T18:44:12.140Z,7.35
2017-12-17T18:46:39.597Z,7.85
2017-12-17T18:49:07.047Z,7.65
2017-12-17T18:51:35.283Z,7.78
2017-12-17T18:54:02.736Z,8.30
2017-12-17T18:56:30.211Z,8.27
2017-12-17T18:58:57.703Z,8.95
2017-12-17T19:01:25.140Z,10.13
2017-12-17T19:03:53.489Z,8.57
2017-12-17T19:06:20.877Z,7.55
2017-12-17T19:08:48.378Z,8.98
2017-12-17T19:11:16.612Z,8.38
2017-12-17T19:13:44.111Z,9.13
2017-12-17T19:16:11.578Z,8.32
2017-12-17T19:18:39.030Z,8.85
2017-12-17T19:21:06.496Z,8.02
2017-12-17T19:23:33.935Z,8.95
2017-12-17T19:26:01.404Z,11.15
2017-12-17T19:28:28.886Z,8.85
2017-12-17T19:31:00.189Z,8.80
2017-12-17T19:33:27.647Z,8.65
2017-12-17T19:35:55.865Z,9.18
2017-12-17T19:38:23.324Z,8.82
2017-12-17T19:40:51.267Z,7.87
2017-12-17T19:43:18.718Z,8.15
2017-12-17T19:45:46.156Z,7.93
2017-12-17T19:48:13.630Z,8.32
2017-12-17T19:50:41.124Z,9.55
2017-12-17T19:53:09.153Z,10.48
2017-12-17T19:55:36.628Z,8.45
2017-12-17T19:58:04.106Z,9.18
2017-12-17T20:00:31.543Z,9.93
2017-12-17T20:02:59.028Z,10.15
2017-12-17T20:05:26.530Z,10.40
2017-12-17T20:07:53.975Z,9.88
2017-12-17T20:10:21.436Z,11.00
2017-12-17T20:12:48.888Z,9.35
2017-12-17T20:15:17.103Z,9.10
2017-12-17T20:17:44.551Z,10.00
2017-12-17T20:20:12.806Z,9.45
2017-12-17T20:22:40.263Z,9.98
2017-12-17T20:25:07.751Z,9.38
2017-12-17T20:27:35.220Z,10.07
2017-12-17T20:30:02.666Z,10.60
2017-12-17T20:32:30.768Z,9.43
2017-12-17T20:34:58.231Z,10.68
2017-12-17T20:37:26.163Z,8.95
2017-12-17T20:39:53.613Z,10.20
2017-12-17T20:42:21.597Z,8.73
2017-12-17T20:44:49.063Z,8.68
2017-12-17T20:47:16.503Z,8.32
2017-12-17T20:49:45.462Z,9.60
2017-12-17T20:52:13.604Z,9.38
2017-12-17T20:54:41.892Z,9.45
2017-12-17T20:57:09.347Z,9.95
2017-12-17T20:59:36.797Z,9.32
2017-12-17T21:02:04.247Z,9.75
2017-12-17T21:04:31.710Z,9.18
2017-12-17T21:07:00.131Z,11.05
2017-12-17T21:09:27.586Z,11.70
2017-12-17T21:11:55.061Z,10.35
2017-12-17T21:14:22.540Z,10.82
2017-12-17T21:16:50.014Z,12.05
2017-12-17T21:19:17.504Z,9.93
2017-12-17T21:21:44.972Z,11.32
2017-12-17T21:24:12.438Z,11.27
2017-12-17T21:26:39.906Z,12.68
2017-12-17T21:29:07.621Z,12.23
2017-12-17T21:31:35.112Z,12.13
2017-12-17T21:34:02.571Z,11.55
2017-12-17T21:36:30.040Z,12.15
2017-12-17T21:39:01.447Z,11.93
2017-12-17T21:41:29.681Z,12.25
2017-12-17T21:43:57.185Z,12.15
2017-12-17T21:46:24.646Z,11.25
2017-12-17T21:48:52.709Z,11.73
2017-12-17T21:51:20.174Z,11.40
2017-12-17T21:53:48.436Z,10.75
2017-12-17T21:56:15.928Z,12.10
2017-12-17T21:58:44.152Z,13.85
2017-12-17T22:01:11.592Z,11.77
2017-12-17T22:03:39.045Z,11.12
2017-12-17T22:06:06.471Z,13.45
2017-12-17T22:08:33.944Z,11.80
2017-12-17T22:11:01.422Z,11.85
2017-12-17T22:13:28.892Z,11.93
2017-12-17T22:15:56.415Z,10.13
2017-12-17T22:18:23.856Z,12.43
2017-12-17T22:20:51.319Z,12.15
2017-12-17T22:23:18.776Z,11.30
2017-12-17T22:25:47.031Z,10.77
2017-12-17T22:28:14.477Z,12.48
2017-12-17T22:40:21.952Z,10.48
2017-12-17T22:42:49.458Z,11.70
2017-12-17T22:45:17.768Z,11.88
2017-12-17T22:47:45.263Z,10.68
2017-12-17T22:50:12.726Z,12.45
2017-12-17T22:52:40.216Z,11.45
2017-12-17T22:55:07.660Z,11.48
2017-12-17T22:57:35.886Z,10.73
2017-12-17T23:00:03.322Z,10.50
2017-12-17T23:02:31.571Z,9.93
2017-12-17T23:04:59.029Z,10.85
2017-12-17T23:07:26.469Z,10.35
2017-12-17T23:09:54.705Z,10.48
2017-12-17T23:12:22.177Z,11.65
2017-12-17T23:14:49.617Z,12.18
2017-12-17T23:17:17.828Z,11.02
2017-12-17T23:19:45.291Z,11.93
2017-12-17T23:22:13.485Z,11.85
2017-12-17T23:24:40.944Z,11.80
2017-12-17T23:27:09.155Z,11.88
2017-12-17T23:29:37.170Z,10.48
2017-12-17T23:32:04.675Z,11.80
2017-12-17T23:34:35.950Z,12.10
2017-12-17T23:37:03.418Z,10.93
2017-12-17T23:39:30.896Z,11.50
2017-12-17T23:41:58.328Z,12.63
2017-12-17T23:44:25.885Z,13.13
2017-12-17T23:46:53.326Z,13.15
2017-12-17T23:49:20.767Z,11.90
2017-12-17T23:51:48.233Z,12.18
2017-12-17T23:54:15.707Z,13.95
2017-12-17T23:56:43.199Z,12.80
2017-12-17T23:59:10.644Z,13.45
